sensor_id;sensor_type;location;lat;lon;timestamp;temperature;humidity
28171;DHT22;15458;53.346;-1.688;2022-10-22T00:01:30;13.60;99.90
28171;DHT22;15458;53.346;-1.688;2022-10-22T00:03:55;13.60;99.90
28171;DHT22;15458;53.346;-1.688;2022-10-22T00:06:21;13.50;99.90
28171;DHT22;15458;53.346;-1.688;2022-10-22T00:08:47;13.60;99.90
28171;DHT22;15458;53.346;-1.688;2022-10-22T00:11:15;13.50;99.90
28171;DHT22;15458;53.346;-1.688;2022-10-22T00:13:41;13.50;99.90
28171;DHT22;15458;53.346;-1.688;2022-10-22T00:16:07;13.50;99.90
28171;DHT22;15458;53.346;-1.688;2022-10-22T00:18:34;13.50;99.90
28171;DHT22;15458;53.346;-1.688;2022-10-22T00:20:59;13.50;99.90
28171;DHT22;15458;53.346;-1.688;2022-10-22T00:23:26;13.50;99.90
28171;DHT22;15458;53.346;-1.688;2022-10-22T00:25:54;13.50;99.90
28171;DHT22;15458;53.346;-1.688;2022-10-22T00:28:21;13.50;99.90
28171;DHT22;15458;53.346;-1.688;2022-10-22T00:30:47;13.50;99.90
28171;DHT22;15458;53.346;-1.688;2022-10-22T00:33:13;13.50;99.90
28171;DHT22;15458;53.346;-1.688;2022-10-22T00:35:39;13.50;99.90
28171;DHT22;15458;53.346;-1.688;2022-10-22T00:38:04;13.50;99.90
28171;DHT22;15458;53.346;-1.688;2022-10-22T00:40:30;13.50;99.90
28171;DHT22;15458;53.346;-1.688;2022-10-22T00:42:56;13.50;99.90
28171;DHT22;15458;53.346;-1.688;2022-10-22T00:45:26;13.50;99.90
28171;DHT22;15458;53.346;-1.688;2022-10-22T00:48:32;13.50;99.90
28171;DHT22;15458;53.346;-1.688;2022-10-22T00:50:57;13.50;99.90
28171;DHT22;15458;53.346;-1.688;2022-10-22T00:54:05;13.50;99.90
28171;DHT22;15458;53.346;-1.688;2022-10-22T00:56:24;13.50;99.90
28171;DHT22;15458;53.346;-1.688;2022-10-22T00:58:53;13.50;99.90
28171;DHT22;15458;53.346;-1.688;2022-10-22T01:01:23;13.50;99.90
28171;DHT22;15458;53.346;-1.688;2022-10-22T01:03:50;13.50;99.90
28171;DHT22;15458;53.346;-1.688;2022-10-22T01:06:24;13.50;99.90
28171;DHT22;15458;53.346;-1.688;2022-10-22T01:11:35;13.50;99.90
28171;DHT22;15458;53.346;-1.688;2022-10-22T01:14:28;13.50;99.90
28171;DHT22;15458;53.346;-1.688;2022-10-22T01:18:25;13.50;99.90
28171;DHT22;15458;53.346;-1.688;2022-10-22T01:29:09;13.50;99.90
28171;DHT22;15458;53.346;-1.688;2022-10-22T01:31:40;13.50;99.90
28171;DHT22;15458;53.346;-1.688;2022-10-22T01:34:11;13.50;99.90
28171;DHT22;15458;53.346;-1.688;2022-10-22T01:36:37;13.50;99.90
28171;DHT22;15458;53.346;-1.688;2022-10-22T01:39:04;13.50;99.90
28171;DHT22;15458;53.346;-1.688;2022-10-22T01:41:33;13.50;99.90
28171;DHT22;15458;53.346;-1.688;2022-10-22T01:43:59;13.50;99.90
28171;DHT22;15458;53.346;-1.688;2022-10-22T01:46:27;13.50;99.90
28171;DHT22;15458;53.346;-1.688;2022-10-22T01:54:27;13.50;99.90
28171;DHT22;15458;53.346;-1.688;2022-10-22T01:57:09;13.50;99.90
28171;DHT22;15458;53.346;-1.688;2022-10-22T02:07:58;13.50;99.90
28171;DHT22;15458;53.346;-1.688;2022-10-22T02:10:29;13.40;99.90
28171;DHT22;15458;53.346;-1.688;2022-10-22T02:12:56;13.40;99.90
28171;DHT22;15458;53.346;-1.688;2022-10-22T02:15:25;13.40;99.90
28171;DHT22;15458;53.346;-1.688;2022-10-22T02:17:52;13.40;99.90
28171;DHT22;15458;53.346;-1.688;2022-10-22T02:20:28;13.40;99.90
28171;DHT22;15458;53.346;-1.688;2022-10-22T02:22:54;13.40;99.90
28171;DHT22;15458;53.346;-1.688;2022-10-22T02:25:21;13.40;99.90
28171;DHT22;15458;53.346;-1.688;2022-10-22T02:30:30;13.30;99.90
28171;DHT22;15458;53.346;-1.688;2022-10-22T02:33:04;13.30;99.90
28171;DHT22;15458;53.346;-1.688;2022-10-22T02:35:34;13.30;99.90
28171;DHT22;15458;53.346;-1.688;2022-10-22T02:38:01;13.30;99.90
28171;DHT22;15458;53.346;-1.688;2022-10-22T02:40:31;13.30;99.90
28171;DHT22;15458;53.346;-1.688;2022-10-22T02:42:58;13.30;99.90
28171;DHT22;15458;53.346;-1.688;2022-10-22T02:45:24;13.30;99.90
28171;DHT22;15458;53.346;-1.688;2022-10-22T02:47:50;13.30;99.90
28171;DHT22;15458;53.346;-1.688;2022-10-22T02:50:16;13.20;99.90
28171;DHT22;15458;53.346;-1.688;2022-10-22T02:52:41;13.20;99.90
28171;DHT22;15458;53.346;-1.688;2022-10-22T02:55:10;13.20;99.90
28171;DHT22;15458;53.346;-1.688;2022-10-22T02:57:36;13.10;99.90
28171;DHT22;15458;53.346;-1.688;2022-10-22T03:00:06;13.10;99.90
28171;DHT22;15458;53.346;-1.688;2022-10-22T03:02:32;13.10;99.90
28171;DHT22;15458;53.346;-1.688;2022-10-22T03:04:57;13.10;99.90
28171;DHT22;15458;53.346;-1.688;2022-10-22T03:07:23;13.10;99.90
28171;DHT22;15458;53.346;-1.688;2022-10-22T03:09:49;13.20;99.90
28171;DHT22;15458;53.346;-1.688;2022-10-22T03:12:15;13.20;99.90
28171;DHT22;15458;53.346;-1.688;2022-10-22T03:14:40;13.20;99.90
28171;DHT22;15458;53.346;-1.688;2022-10-22T03:17:06;13.10;99.90
28171;DHT22;15458;53.346;-1.688;2022-10-22T03:19:32;13.10;99.90
28171;DHT22;15458;53.346;-1.688;2022-10-22T03:22:06;13.20;99.90
28171;DHT22;15458;53.346;-1.688;2022-10-22T03:24:40;13.10;99.90
28171;DHT22;15458;53.346;-1.688;2022-10-22T03:27:07;13.10;99.90
28171;DHT22;15458;53.346;-1.688;2022-10-22T03:29:35;13.10;99.90
28171;DHT22;15458;53.346;-1.688;2022-10-22T03:32:02;13.10;99.90
28171;DHT22;15458;53.346;-1.688;2022-10-22T03:34:31;13.10;99.90
28171;DHT22;15458;53.346;-1.688;2022-10-22T03:36:58;13.10;99.90
28171;DHT22;15458;53.346;-1.688;2022-10-22T03:39:28;13.10;99.90
28171;DHT22;15458;53.346;-1.688;2022-10-22T03:41:56;13.10;99.90
28171;DHT22;15458;53.346;-1.688;2022-10-22T03:44:25;13.10;99.90
28171;DHT22;15458;53.346;-1.688;2022-10-22T03:46:51;13.00;99.90
28171;DHT22;15458;53.346;-1.688;2022-10-22T03:49:18;13.00;99.90
28171;DHT22;15458;53.346;-1.688;2022-10-22T03:51:44;13.00;99.90
28171;DHT22;15458;53.346;-1.688;2022-10-22T03:54:10;13.00;99.90
28171;DHT22;15458;53.346;-1.688;2022-10-22T03:56:35;13.00;99.90
28171;DHT22;15458;53.346;-1.688;2022-10-22T03:59:01;13.00;99.90
28171;DHT22;15458;53.346;-1.688;2022-10-22T04:01:28;13.00;99.90
28171;DHT22;15458;53.346;-1.688;2022-10-22T04:03:55;13.00;99.90
28171;DHT22;15458;53.346;-1.688;2022-10-22T04:06:24;13.00;99.90
28171;DHT22;15458;53.346;-1.688;2022-10-22T04:08:52;12.90;99.90
28171;DHT22;15458;53.346;-1.688;2022-10-22T04:11:17;12.90;99.90
28171;DHT22;15458;53.346;-1.688;2022-10-22T04:13:44;12.90;99.90
28171;DHT22;15458;53.346;-1.688;2022-10-22T04:16:13;12.80;99.90
28171;DHT22;15458;53.346;-1.688;2022-10-22T04:18:43;12.80;99.90
28171;DHT22;15458;53.346;-1.688;2022-10-22T04:21:11;12.80;99.90
28171;DHT22;15458;53.346;-1.688;2022-10-22T04:23:37;12.70;99.90
28171;DHT22;15458;53.346;-1.688;2022-10-22T04:26:05;12.70;99.90
28171;DHT22;15458;53.346;-1.688;2022-10-22T04:28:32;12.70;99.90
28171;DHT22;15458;53.346;-1.688;2022-10-22T04:31:08;12.70;99.90
28171;DHT22;15458;53.346;-1.688;2022-10-22T04:33:34;12.60;99.90
28171;DHT22;15458;53.346;-1.688;2022-10-22T04:36:04;12.60;99.90
28171;DHT22;15458;53.346;-1.688;2022-10-22T04:38:30;12.60;99.90
28171;DHT22;15458;53.346;-1.688;2022-10-22T04:40:57;12.50;99.90
28171;DHT22;15458;53.346;-1.688;2022-10-22T04:43:22;12.50;99.90
28171;DHT22;15458;53.346;-1.688;2022-10-22T04:45:48;12.40;99.90
28171;DHT22;15458;53.346;-1.688;2022-10-22T04:48:13;12.40;99.90
28171;DHT22;15458;53.346;-1.688;2022-10-22T04:50:39;12.40;99.90
28171;DHT22;15458;53.346;-1.688;2022-10-22T04:53:05;12.30;99.90
28171;DHT22;15458;53.346;-1.688;2022-10-22T04:55:30;12.20;99.90
28171;DHT22;15458;53.346;-1.688;2022-10-22T04:57:56;12.20;99.90
28171;DHT22;15458;53.346;-1.688;2022-10-22T05:00:23;12.20;99.90
28171;DHT22;15458;53.346;-1.688;2022-10-22T05:02:50;12.20;99.90
28171;DHT22;15458;53.346;-1.688;2022-10-22T05:05:16;12.10;99.90
28171;DHT22;15458;53.346;-1.688;2022-10-22T05:07:42;12.10;99.90
28171;DHT22;15458;53.346;-1.688;2022-10-22T05:10:09;12.10;99.90
28171;DHT22;15458;53.346;-1.688;2022-10-22T05:12:35;12.00;99.90
28171;DHT22;15458;53.346;-1.688;2022-10-22T05:15:01;12.00;99.90
28171;DHT22;15458;53.346;-1.688;2022-10-22T05:17:26;11.90;99.90
28171;DHT22;15458;53.346;-1.688;2022-10-22T05:19:52;11.90;99.90
28171;DHT22;15458;53.346;-1.688;2022-10-22T05:22:17;11.90;99.90
28171;DHT22;15458;53.346;-1.688;2022-10-22T05:24:43;11.80;99.90
28171;DHT22;15458;53.346;-1.688;2022-10-22T05:27:09;11.80;99.90
28171;DHT22;15458;53.346;-1.688;2022-10-22T05:29:35;11.70;99.90
28171;DHT22;15458;53.346;-1.688;2022-10-22T05:32:03;11.70;99.90
28171;DHT22;15458;53.346;-1.688;2022-10-22T05:34:28;11.70;99.90
28171;DHT22;15458;53.346;-1.688;2022-10-22T05:36:55;11.60;99.90
28171;DHT22;15458;53.346;-1.688;2022-10-22T05:39:21;11.60;99.90
28171;DHT22;15458;53.346;-1.688;2022-10-22T05:41:46;11.50;99.90
28171;DHT22;15458;53.346;-1.688;2022-10-22T05:44:12;11.50;99.90
28171;DHT22;15458;53.346;-1.688;2022-10-22T05:46:39;11.40;99.90
28171;DHT22;15458;53.346;-1.688;2022-10-22T05:49:06;11.40;99.90
28171;DHT22;15458;53.346;-1.688;2022-10-22T05:51:33;11.30;99.90
28171;DHT22;15458;53.346;-1.688;2022-10-22T05:54:01;11.30;99.90
28171;DHT22;15458;53.346;-1.688;2022-10-22T05:56:28;11.30;99.90
28171;DHT22;15458;53.346;-1.688;2022-10-22T05:58:55;11.20;99.90
28171;DHT22;15458;53.346;-1.688;2022-10-22T06:01:24;11.20;99.90
28171;DHT22;15458;53.346;-1.688;2022-10-22T06:03:53;11.20;99.90
28171;DHT22;15458;53.346;-1.688;2022-10-22T06:08:50;11.10;99.90
28171;DHT22;15458;53.346;-1.688;2022-10-22T06:11:17;11.10;99.90
28171;DHT22;15458;53.346;-1.688;2022-10-22T06:13:45;11.10;99.90
28171;DHT22;15458;53.346;-1.688;2022-10-22T06:16:12;11.00;99.90
28171;DHT22;15458;53.346;-1.688;2022-10-22T06:18:39;11.00;99.90
28171;DHT22;15458;53.346;-1.688;2022-10-22T06:21:09;11.00;99.90
28171;DHT22;15458;53.346;-1.688;2022-10-22T06:23:36;11.00;99.90
28171;DHT22;15458;53.346;-1.688;2022-10-22T06:26:03;10.90;99.90
28171;DHT22;15458;53.346;-1.688;2022-10-22T06:28:33;10.90;99.90
28171;DHT22;15458;53.346;-1.688;2022-10-22T06:31:01;10.90;99.90
28171;DHT22;15458;53.346;-1.688;2022-10-22T06:33:30;10.90;99.90
28171;DHT22;15458;53.346;-1.688;2022-10-22T06:36:06;10.80;99.90
28171;DHT22;15458;53.346;-1.688;2022-10-22T06:38:32;10.80;99.90
28171;DHT22;15458;53.346;-1.688;2022-10-22T06:41:17;10.80;99.90
28171;DHT22;15458;53.346;-1.688;2022-10-22T06:43:46;10.80;99.90
28171;DHT22;15458;53.346;-1.688;2022-10-22T06:46:15;10.80;99.90
28171;DHT22;15458;53.346;-1.688;2022-10-22T06:48:42;10.70;99.90
28171;DHT22;15458;53.346;-1.688;2022-10-22T06:51:11;10.70;99.90
28171;DHT22;15458;53.346;-1.688;2022-10-22T06:53:39;10.80;99.90
28171;DHT22;15458;53.346;-1.688;2022-10-22T06:56:08;10.70;99.90
28171;DHT22;15458;53.346;-1.688;2022-10-22T06:58:38;10.70;99.90
28171;DHT22;15458;53.346;-1.688;2022-10-22T07:01:07;10.70;99.90
28171;DHT22;15458;53.346;-1.688;2022-10-22T07:03:46;10.70;99.90
28171;DHT22;15458;53.346;-1.688;2022-10-22T07:06:13;10.70;99.90
28171;DHT22;15458;53.346;-1.688;2022-10-22T07:08:42;10.70;99.90
28171;DHT22;15458;53.346;-1.688;2022-10-22T07:11:11;10.70;99.90
28171;DHT22;15458;53.346;-1.688;2022-10-22T07:13:43;10.80;99.90
28171;DHT22;15458;53.346;-1.688;2022-10-22T07:35:12;10.80;99.90
28171;DHT22;15458;53.346;-1.688;2022-10-22T07:37:39;10.80;99.90
28171;DHT22;15458;53.346;-1.688;2022-10-22T07:40:06;10.80;99.90
28171;DHT22;15458;53.346;-1.688;2022-10-22T07:42:32;10.80;99.90
28171;DHT22;15458;53.346;-1.688;2022-10-22T07:45:00;10.90;99.90
28171;DHT22;15458;53.346;-1.688;2022-10-22T07:47:26;10.90;99.90
28171;DHT22;15458;53.346;-1.688;2022-10-22T07:49:55;10.90;99.90
28171;DHT22;15458;53.346;-1.688;2022-10-22T07:52:22;10.90;99.90
28171;DHT22;15458;53.346;-1.688;2022-10-22T07:54:48;11.00;99.90
28171;DHT22;15458;53.346;-1.688;2022-10-22T07:57:13;11.00;99.90
28171;DHT22;15458;53.346;-1.688;2022-10-22T07:59:39;11.00;99.90
28171;DHT22;15458;53.346;-1.688;2022-10-22T08:02:05;11.10;99.90
28171;DHT22;15458;53.346;-1.688;2022-10-22T08:04:31;11.10;99.90
28171;DHT22;15458;53.346;-1.688;2022-10-22T08:06:57;11.20;99.90
28171;DHT22;15458;53.346;-1.688;2022-10-22T08:09:22;11.20;99.90
28171;DHT22;15458;53.346;-1.688;2022-10-22T08:11:49;11.30;99.90
28171;DHT22;15458;53.346;-1.688;2022-10-22T08:14:15;11.30;99.90
28171;DHT22;15458;53.346;-1.688;2022-10-22T08:16:41;11.30;99.90
28171;DHT22;15458;53.346;-1.688;2022-10-22T08:19:07;11.30;99.90
28171;DHT22;15458;53.346;-1.688;2022-10-22T08:21:32;11.30;99.90
28171;DHT22;15458;53.346;-1.688;2022-10-22T08:23:58;11.30;99.90
28171;DHT22;15458;53.346;-1.688;2022-10-22T08:26:24;11.30;99.90
28171;DHT22;15458;53.346;-1.688;2022-10-22T08:28:49;11.40;99.90
28171;DHT22;15458;53.346;-1.688;2022-10-22T08:31:15;11.40;99.90
28171;DHT22;15458;53.346;-1.688;2022-10-22T08:33:41;11.40;99.90
28171;DHT22;15458;53.346;-1.688;2022-10-22T08:36:08;11.50;99.90
28171;DHT22;15458;53.346;-1.688;2022-10-22T08:38:34;11.60;99.90
28171;DHT22;15458;53.346;-1.688;2022-10-22T08:41:07;11.60;99.90
28171;DHT22;15458;53.346;-1.688;2022-10-22T08:44:01;11.60;99.90
28171;DHT22;15458;53.346;-1.688;2022-10-22T08:46:38;11.60;99.90
28171;DHT22;15458;53.346;-1.688;2022-10-22T08:49:14;11.70;99.90
28171;DHT22;15458;53.346;-1.688;2022-10-22T08:51:43;11.70;99.90
28171;DHT22;15458;53.346;-1.688;2022-10-22T08:57:54;11.80;99.90
28171;DHT22;15458;53.346;-1.688;2022-10-22T09:00:43;11.90;99.90
28171;DHT22;15458;53.346;-1.688;2022-10-22T09:08:32;12.10;99.90
28171;DHT22;15458;53.346;-1.688;2022-10-22T09:11:21;12.20;99.90
28171;DHT22;15458;53.346;-1.688;2022-10-22T09:13:50;12.30;99.90
28171;DHT22;15458;53.346;-1.688;2022-10-22T09:25:14;12.80;99.90
28171;DHT22;15458;53.346;-1.688;2022-10-22T09:27:42;13.00;99.90
28171;DHT22;15458;53.346;-1.688;2022-10-22T09:30:18;13.20;99.90
28171;DHT22;15458;53.346;-1.688;2022-10-22T09:32:44;13.40;99.90
28171;DHT22;15458;53.346;-1.688;2022-10-22T09:35:13;13.50;99.90
28171;DHT22;15458;53.346;-1.688;2022-10-22T09:37:50;13.70;99.90
28171;DHT22;15458;53.346;-1.688;2022-10-22T09:40:16;13.90;99.90
28171;DHT22;15458;53.346;-1.688;2022-10-22T09:42:44;14.10;99.90
28171;DHT22;15458;53.346;-1.688;2022-10-22T09:45:23;14.30;99.90
28171;DHT22;15458;53.346;-1.688;2022-10-22T09:47:50;14.50;99.90
28171;DHT22;15458;53.346;-1.688;2022-10-22T09:50:48;14.70;99.90
28171;DHT22;15458;53.346;-1.688;2022-10-22T09:53:27;14.90;99.90
28171;DHT22;15458;53.346;-1.688;2022-10-22T09:55:57;15.10;99.90
28171;DHT22;15458;53.346;-1.688;2022-10-22T09:58:23;15.40;99.90
28171;DHT22;15458;53.346;-1.688;2022-10-22T10:00:57;15.60;99.90
28171;DHT22;15458;53.346;-1.688;2022-10-22T10:03:27;15.70;99.90
28171;DHT22;15458;53.346;-1.688;2022-10-22T10:05:57;15.90;99.90
28171;DHT22;15458;53.346;-1.688;2022-10-22T10:08:23;16.10;99.90
28171;DHT22;15458;53.346;-1.688;2022-10-22T10:11:10;16.20;99.90
28171;DHT22;15458;53.346;-1.688;2022-10-22T10:13:42;16.20;99.90
28171;DHT22;15458;53.346;-1.688;2022-10-22T10:19:24;16.40;99.90
28171;DHT22;15458;53.346;-1.688;2022-10-22T10:25:19;16.70;99.90
28171;DHT22;15458;53.346;-1.688;2022-10-22T10:27:58;16.90;99.90
28171;DHT22;15458;53.346;-1.688;2022-10-22T10:30:26;17.20;99.90
28171;DHT22;15458;53.346;-1.688;2022-10-22T10:38:42;17.50;99.90
28171;DHT22;15458;53.346;-1.688;2022-10-22T10:41:35;17.60;99.90
28171;DHT22;15458;53.346;-1.688;2022-10-22T10:44:35;17.90;99.90
28171;DHT22;15458;53.346;-1.688;2022-10-22T10:49:42;18.20;99.90
28171;DHT22;15458;53.346;-1.688;2022-10-22T10:52:27;18.40;99.90
28171;DHT22;15458;53.346;-1.688;2022-10-22T10:58:10;18.30;97.10
28171;DHT22;15458;53.346;-1.688;2022-10-22T11:06:30;18.70;95.60
28171;DHT22;15458;53.346;-1.688;2022-10-22T11:09:23;18.60;94.10
28171;DHT22;15458;53.346;-1.688;2022-10-22T11:12:01;18.50;94.20
28171;DHT22;15458;53.346;-1.688;2022-10-22T11:14:38;18.50;94.50
28171;DHT22;15458;53.346;-1.688;2022-10-22T11:17:19;18.40;94.10
28171;DHT22;15458;53.346;-1.688;2022-10-22T11:19:59;18.40;94.20
28171;DHT22;15458;53.346;-1.688;2022-10-22T11:25:22;18.30;94.30
28171;DHT22;15458;53.346;-1.688;2022-10-22T11:28:13;18.50;94.80
28171;DHT22;15458;53.346;-1.688;2022-10-22T11:30:44;18.70;93.20
28171;DHT22;15458;53.346;-1.688;2022-10-22T11:33:21;18.80;92.80
28171;DHT22;15458;53.346;-1.688;2022-10-22T11:35:49;19.00;93.00
28171;DHT22;15458;53.346;-1.688;2022-10-22T11:38:21;19.20;92.60
28171;DHT22;15458;53.346;-1.688;2022-10-22T11:41:13;19.50;92.00
28171;DHT22;15458;53.346;-1.688;2022-10-22T11:44:20;19.80;91.70
28171;DHT22;15458;53.346;-1.688;2022-10-22T11:47:18;20.30;91.00
28171;DHT22;15458;53.346;-1.688;2022-10-22T11:49:56;20.40;90.20
28171;DHT22;15458;53.346;-1.688;2022-10-22T11:55:02;20.20;89.30
28171;DHT22;15458;53.346;-1.688;2022-10-22T11:57:37;20.00;89.30
28171;DHT22;15458;53.346;-1.688;2022-10-22T12:00:40;20.10;89.80
28171;DHT22;15458;53.346;-1.688;2022-10-22T12:08:30;19.90;88.90
28171;DHT22;15458;53.346;-1.688;2022-10-22T12:11:27;19.80;89.50
28171;DHT22;15458;53.346;-1.688;2022-10-22T12:19:43;20.20;90.10
28171;DHT22;15458;53.346;-1.688;2022-10-22T12:24:37;20.00;90.10
28171;DHT22;15458;53.346;-1.688;2022-10-22T12:27:20;20.00;90.00
28171;DHT22;15458;53.346;-1.688;2022-10-22T12:29:46;20.10;90.20
28171;DHT22;15458;53.346;-1.688;2022-10-22T12:32:14;20.30;90.20
28171;DHT22;15458;53.346;-1.688;2022-10-22T12:34:53;20.50;90.00
28171;DHT22;15458;53.346;-1.688;2022-10-22T12:37:20;20.70;89.30
28171;DHT22;15458;53.346;-1.688;2022-10-22T12:39:46;20.70;88.30
28171;DHT22;15458;53.346;-1.688;2022-10-22T12:42:15;20.80;88.30
28171;DHT22;15458;53.346;-1.688;2022-10-22T12:44:43;20.90;87.30
28171;DHT22;15458;53.346;-1.688;2022-10-22T12:47:17;20.80;86.80
28171;DHT22;15458;53.346;-1.688;2022-10-22T12:49:48;20.70;87.20
28171;DHT22;15458;53.346;-1.688;2022-10-22T12:52:20;20.70;87.20
28171;DHT22;15458;53.346;-1.688;2022-10-22T12:54:49;20.60;87.10
28171;DHT22;15458;53.346;-1.688;2022-10-22T12:57:17;20.40;87.70
28171;DHT22;15458;53.346;-1.688;2022-10-22T12:59:48;20.10;87.90
28171;DHT22;15458;53.346;-1.688;2022-10-22T13:02:23;19.80;89.20
28171;DHT22;15458;53.346;-1.688;2022-10-22T13:05:19;19.50;90.10
28171;DHT22;15458;53.346;-1.688;2022-10-22T13:07:51;19.20;90.80
28171;DHT22;15458;53.346;-1.688;2022-10-22T13:10:29;18.90;91.40
28171;DHT22;15458;53.346;-1.688;2022-10-22T13:12:57;18.70;91.80
28171;DHT22;15458;53.346;-1.688;2022-10-22T13:18:12;18.40;93.00
28171;DHT22;15458;53.346;-1.688;2022-10-22T13:20:56;18.30;93.20
28171;DHT22;15458;53.346;-1.688;2022-10-22T13:23:25;18.50;93.60
28171;DHT22;15458;53.346;-1.688;2022-10-22T13:25:57;18.60;93.30
28171;DHT22;15458;53.346;-1.688;2022-10-22T13:28:24;18.80;93.20
28171;DHT22;15458;53.346;-1.688;2022-10-22T13:31:00;19.10;93.00
28171;DHT22;15458;53.346;-1.688;2022-10-22T13:33:55;19.20;92.40
28171;DHT22;15458;53.346;-1.688;2022-10-22T13:36:22;19.30;92.10
28171;DHT22;15458;53.346;-1.688;2022-10-22T13:38:49;19.50;91.50
28171;DHT22;15458;53.346;-1.688;2022-10-22T13:43:43;19.90;90.60
28171;DHT22;15458;53.346;-1.688;2022-10-22T13:46:09;20.30;90.20
28171;DHT22;15458;53.346;-1.688;2022-10-22T13:48:36;20.30;88.20
28171;DHT22;15458;53.346;-1.688;2022-10-22T13:51:13;20.30;86.60
28171;DHT22;15458;53.346;-1.688;2022-10-22T13:53:39;20.20;86.00
28171;DHT22;15458;53.346;-1.688;2022-10-22T13:56:05;20.10;85.30
28171;DHT22;15458;53.346;-1.688;2022-10-22T13:58:31;20.00;85.40
28171;DHT22;15458;53.346;-1.688;2022-10-22T14:01:00;19.70;85.10
28171;DHT22;15458;53.346;-1.688;2022-10-22T14:03:28;19.50;86.00
28171;DHT22;15458;53.346;-1.688;2022-10-22T14:05:56;19.30;86.90
28171;DHT22;15458;53.346;-1.688;2022-10-22T14:08:23;19.10;87.10
28171;DHT22;15458;53.346;-1.688;2022-10-22T14:10:50;18.80;87.40
28171;DHT22;15458;53.346;-1.688;2022-10-22T14:13:19;18.60;88.10
28171;DHT22;15458;53.346;-1.688;2022-10-22T14:15:47;18.40;89.00
28171;DHT22;15458;53.346;-1.688;2022-10-22T14:18:17;18.20;89.90
28171;DHT22;15458;53.346;-1.688;2022-10-22T14:20:51;18.20;90.30
28171;DHT22;15458;53.346;-1.688;2022-10-22T14:23:19;18.20;90.70
28171;DHT22;15458;53.346;-1.688;2022-10-22T14:25:46;18.20;90.80
28171;DHT22;15458;53.346;-1.688;2022-10-22T14:28:12;18.30;90.80
28171;DHT22;15458;53.346;-1.688;2022-10-22T14:30:39;18.40;90.90
28171;DHT22;15458;53.346;-1.688;2022-10-22T14:33:30;18.60;90.90
28171;DHT22;15458;53.346;-1.688;2022-10-22T14:35:57;18.80;90.60
28171;DHT22;15458;53.346;-1.688;2022-10-22T14:38:23;18.90;90.30
28171;DHT22;15458;53.346;-1.688;2022-10-22T14:40:52;19.10;90.40
28171;DHT22;15458;53.346;-1.688;2022-10-22T14:43:29;19.20;90.30
28171;DHT22;15458;53.346;-1.688;2022-10-22T14:45:56;19.00;90.00
28171;DHT22;15458;53.346;-1.688;2022-10-22T14:48:23;18.80;90.10
28171;DHT22;15458;53.346;-1.688;2022-10-22T14:50:49;18.50;90.40
28171;DHT22;15458;53.346;-1.688;2022-10-22T14:53:15;18.20;90.60
28171;DHT22;15458;53.346;-1.688;2022-10-22T14:55:43;18.00;90.90
28171;DHT22;15458;53.346;-1.688;2022-10-22T14:58:12;17.80;91.30
28171;DHT22;15458;53.346;-1.688;2022-10-22T15:00:40;17.70;91.60
28171;DHT22;15458;53.346;-1.688;2022-10-22T15:03:05;17.60;91.90
28171;DHT22;15458;53.346;-1.688;2022-10-22T15:05:31;17.60;92.30
28171;DHT22;15458;53.346;-1.688;2022-10-22T15:07:57;17.70;92.60
28171;DHT22;15458;53.346;-1.688;2022-10-22T15:10:25;17.80;92.60
28171;DHT22;15458;53.346;-1.688;2022-10-22T15:12:50;17.70;92.30
28171;DHT22;15458;53.346;-1.688;2022-10-22T15:15:17;17.60;92.20
28171;DHT22;15458;53.346;-1.688;2022-10-22T15:17:43;17.40;92.30
28171;DHT22;15458;53.346;-1.688;2022-10-22T15:20:09;17.30;92.50
28171;DHT22;15458;53.346;-1.688;2022-10-22T15:22:35;17.30;92.40
28171;DHT22;15458;53.346;-1.688;2022-10-22T15:25:06;17.30;92.50
28171;DHT22;15458;53.346;-1.688;2022-10-22T15:27:32;17.20;92.50
28171;DHT22;15458;53.346;-1.688;2022-10-22T15:29:58;17.20;92.40
28171;DHT22;15458;53.346;-1.688;2022-10-22T15:32:25;17.10;92.40
28171;DHT22;15458;53.346;-1.688;2022-10-22T15:34:54;17.10;92.80
28171;DHT22;15458;53.346;-1.688;2022-10-22T15:37:20;17.00;92.90
28171;DHT22;15458;53.346;-1.688;2022-10-22T15:39:46;16.90;92.90
28171;DHT22;15458;53.346;-1.688;2022-10-22T15:42:12;16.70;93.10
28171;DHT22;15458;53.346;-1.688;2022-10-22T15:44:39;16.60;93.50
28171;DHT22;15458;53.346;-1.688;2022-10-22T15:47:05;16.50;93.90
28171;DHT22;15458;53.346;-1.688;2022-10-22T15:49:36;16.40;94.30
28171;DHT22;15458;53.346;-1.688;2022-10-22T15:52:05;16.40;94.70
28171;DHT22;15458;53.346;-1.688;2022-10-22T15:54:33;16.30;95.00
28171;DHT22;15458;53.346;-1.688;2022-10-22T15:57:00;16.30;95.50
28171;DHT22;15458;53.346;-1.688;2022-10-22T15:59:28;16.20;95.30
28171;DHT22;15458;53.346;-1.688;2022-10-22T16:01:53;16.20;95.60
28171;DHT22;15458;53.346;-1.688;2022-10-22T16:04:21;16.10;96.00
28171;DHT22;15458;53.346;-1.688;2022-10-22T16:06:51;16.10;96.20
28171;DHT22;15458;53.346;-1.688;2022-10-22T16:09:19;16.00;96.40
28171;DHT22;15458;53.346;-1.688;2022-10-22T16:11:46;15.90;96.70
28171;DHT22;15458;53.346;-1.688;2022-10-22T16:14:13;15.80;97.00
28171;DHT22;15458;53.346;-1.688;2022-10-22T16:16:43;15.80;97.40
28171;DHT22;15458;53.346;-1.688;2022-10-22T16:19:14;15.80;97.70
28171;DHT22;15458;53.346;-1.688;2022-10-22T16:21:41;15.70;97.90
28171;DHT22;15458;53.346;-1.688;2022-10-22T16:24:10;15.60;98.30
28171;DHT22;15458;53.346;-1.688;2022-10-22T16:26:39;15.50;98.70
28171;DHT22;15458;53.346;-1.688;2022-10-22T16:29:12;15.50;99.10
28171;DHT22;15458;53.346;-1.688;2022-10-22T16:31:40;15.40;99.50
28171;DHT22;15458;53.346;-1.688;2022-10-22T16:34:10;15.30;99.80
28171;DHT22;15458;53.346;-1.688;2022-10-22T16:36:40;15.20;99.90
28171;DHT22;15458;53.346;-1.688;2022-10-22T16:39:09;15.10;99.90
28171;DHT22;15458;53.346;-1.688;2022-10-22T16:41:35;14.90;99.90
28171;DHT22;15458;53.346;-1.688;2022-10-22T16:44:06;14.90;99.90
28171;DHT22;15458;53.346;-1.688;2022-10-22T16:52:30;14.70;99.90
28171;DHT22;15458;53.346;-1.688;2022-10-22T16:55:06;14.60;99.90
28171;DHT22;15458;53.346;-1.688;2022-10-22T16:57:32;14.50;99.90
28171;DHT22;15458;53.346;-1.688;2022-10-22T17:00:03;14.50;99.90
28171;DHT22;15458;53.346;-1.688;2022-10-22T17:02:31;14.40;99.90
28171;DHT22;15458;53.346;-1.688;2022-10-22T17:04:57;14.30;99.90
28171;DHT22;15458;53.346;-1.688;2022-10-22T17:07:22;14.30;99.90
28171;DHT22;15458;53.346;-1.688;2022-10-22T17:09:51;14.30;99.90
28171;DHT22;15458;53.346;-1.688;2022-10-22T17:12:17;14.30;99.90
28171;DHT22;15458;53.346;-1.688;2022-10-22T17:14:42;14.30;99.90
28171;DHT22;15458;53.346;-1.688;2022-10-22T17:17:08;14.20;99.90
28171;DHT22;15458;53.346;-1.688;2022-10-22T17:19:34;14.20;99.90
28171;DHT22;15458;53.346;-1.688;2022-10-22T17:22:03;14.20;99.90
28171;DHT22;15458;53.346;-1.688;2022-10-22T17:24:29;14.20;99.90
28171;DHT22;15458;53.346;-1.688;2022-10-22T17:27:00;14.20;99.90
28171;DHT22;15458;53.346;-1.688;2022-10-22T17:29:29;14.20;99.90
28171;DHT22;15458;53.346;-1.688;2022-10-22T17:31:55;14.20;99.90
28171;DHT22;15458;53.346;-1.688;2022-10-22T17:34:24;14.10;99.90